Time;durP1;ratioP1;P1;durP2;ratioP2;P2;SDS_P1;SDS_P2;PMS_P1;PMS_P2;Temp;Humidity;BMP_temperature;BMP_pressure;BME280_temperature;BME280_humidity;BME280_pressure;Samples;Min_cycle;Max_cycle;Signal;HPM_P1;HPM_P2
2023/07/29 00:00:45;;;;;;;4.20;3.00;;;19.40;1.00;;;;;;4992135;28;20179;-74
2023/07/29 00:03:10;;;;;;;9.70;3.07;;;19.40;1.00;;;;;;4988416;28;20461;-74
2023/07/29 00:05:39;;;;;;;7.90;3.40;;;19.50;1.00;;;;;;4991756;28;20171;-74
2023/07/29 00:08:05;;;;;;;4.10;3.07;;;21.10;1.00;;;;;;4995451;28;20211;-75
2023/07/29 00:10:32;;;;;;;5.80;3.27;;;19.40;1.00;;;;;;4991679;28;20828;-76
2023/07/29 00:12:58;;;;;;;5.80;3.17;;;19.40;1.00;;;;;;4991715;28;20414;-73
2023/07/29 00:15:24;;;;;;;5.43;3.00;;;19.40;1.00;;;;;;4991544;28;20498;-74
2023/07/29 00:17:50;;;;;;;5.70;3.67;;;19.40;1.00;;;;;;4990877;28;20541;-74
2023/07/29 00:20:15;;;;;;;6.27;3.17;;;19.40;1.00;;;;;;4991776;28;20179;-74
2023/07/29 00:22:41;;;;;;;4.47;2.90;;;19.40;1.00;;;;;;4991117;28;20293;-73
2023/07/29 00:25:07;;;;;;;6.53;2.93;;;19.40;1.00;;;;;;4991857;28;20179;-75
2023/07/29 00:27:32;;;;;;;5.00;2.53;;;19.40;1.00;;;;;;4991013;28;20205;-74
2023/07/29 00:29:58;;;;;;;3.80;3.00;;;19.40;1.00;;;;;;4989787;28;20179;-75
2023/07/29 00:32:23;;;;;;;5.10;2.80;;;19.40;1.00;;;;;;4990273;28;20190;-75
2023/07/29 00:34:49;;;;;;;6.93;2.80;;;19.40;1.00;;;;;;4991458;28;20175;-74
2023/07/29 00:37:14;;;;;;;8.50;2.90;;;19.40;1.00;;;;;;4990927;28;20282;-75
2023/07/29 00:39:40;;;;;;;4.13;2.70;;;19.40;1.00;;;;;;4990847;28;20601;-74
2023/07/29 00:42:06;;;;;;;3.93;2.70;;;19.40;1.00;;;;;;4991448;28;20206;-74
2023/07/29 00:44:32;;;;;;;5.53;2.73;;;19.40;1.00;;;;;;4990703;28;20418;-72
2023/07/29 00:46:58;;;;;;;5.33;2.50;;;19.40;1.00;;;;;;4989802;28;20206;-74
2023/07/29 00:49:24;;;;;;;4.47;2.70;;;19.30;1.00;;;;;;4990165;28;20298;-75
2023/07/29 00:51:50;;;;;;;3.23;2.53;;;19.30;1.00;;;;;;4991060;28;21681;-73
2023/07/29 00:54:16;;;;;;;3.80;2.73;;;19.30;1.00;;;;;;4989621;28;20180;-73
2023/07/29 00:56:42;;;;;;;3.40;2.77;;;19.30;1.00;;;;;;4989044;28;20827;-74
2023/07/29 00:59:08;;;;;;;4.47;2.83;;;19.30;1.00;;;;;;4989400;28;20182;-73
2023/07/29 01:01:33;;;;;;;3.37;2.60;;;19.30;1.00;;;;;;4989492;28;20497;-73
2023/07/29 01:03:59;;;;;;;3.83;2.73;;;19.20;1.00;;;;;;4988905;28;20184;-75
2023/07/29 01:06:33;;;;;;;3.40;2.50;;;19.20;1.00;;;;;;4989932;28;20614;-73
2023/07/29 01:09:04;;;;;;;4.97;2.60;;;19.30;1.00;;;;;;4989020;28;20366;-74
2023/07/29 01:11:49;;;;;;;3.73;2.50;;;19.30;1.00;;;;;;4989871;28;20414;-75
2023/07/29 01:14:14;;;;;;;7.03;2.93;;;19.30;1.00;;;;;;4988748;28;20956;-74
2023/07/29 01:16:46;;;;;;;5.73;2.43;;;19.30;1.00;;;;;;4989109;28;20446;-76
2023/07/29 01:19:38;;;;;;;3.10;2.50;;;19.40;1.00;;;;;;4988958;28;20662;-76
2023/07/29 01:22:04;;;;;;;3.00;2.30;;;19.40;1.00;;;;;;4984095;28;21111;-74
2023/07/29 01:24:30;;;;;;;8.30;2.83;;;19.40;1.00;;;;;;4989880;28;20472;-76
2023/07/29 01:26:55;;;;;;;8.40;2.77;;;19.40;1.00;;;;;;4990082;28;20438;-74
2023/07/29 01:29:21;;;;;;;4.27;2.63;;;19.50;1.00;;;;;;4989159;28;20183;-75
2023/07/29 01:31:51;;;;;;;3.33;2.50;;;19.50;1.00;;;;;;4988824;28;20176;-74
2023/07/29 01:34:32;;;;;;;5.13;2.70;;;19.50;1.00;;;;;;4989983;28;20445;-74
2023/07/29 01:36:59;;;;;;;3.90;2.63;;;19.50;1.00;;;;;;4982612;28;20430;-74
2023/07/29 01:39:29;;;;;;;3.30;2.50;;;19.40;1.00;;;;;;4990223;28;20941;-74
2023/07/29 01:41:55;;;;;;;3.50;2.60;;;19.40;1.00;;;;;;4982503;28;20450;-73
2023/07/29 01:44:21;;;;;;;3.20;2.50;;;19.40;1.00;;;;;;4990060;28;20414;-75
2023/07/29 01:46:47;;;;;;;4.43;2.80;;;19.40;1.00;;;;;;4988613;28;20461;-75
2023/07/29 01:49:12;;;;;;;6.07;2.80;;;19.50;1.00;;;;;;4989225;28;20171;-75
2023/07/29 01:51:38;;;;;;;4.27;3.10;;;19.50;1.00;;;;;;4989071;28;20437;-74
2023/07/29 01:54:04;;;;;;;4.17;2.80;;;19.50;1.00;;;;;;4989937;28;20545;-76
2023/07/29 01:56:29;;;;;;;3.83;2.70;;;19.40;1.00;;;;;;4991946;28;20573;-74
2023/07/29 01:58:55;;;;;;;6.40;2.80;;;19.40;1.00;;;;;;4989603;28;20770;-75
2023/07/29 02:01:20;;;;;;;3.97;2.80;;;19.40;1.00;;;;;;4988468;28;20211;-75
2023/07/29 02:03:46;;;;;;;6.03;2.90;;;19.30;1.00;;;;;;4987877;28;20175;-76
2023/07/29 02:06:11;;;;;;;5.77;2.73;;;19.20;1.00;;;;;;4989423;28;20214;-74
2023/07/29 02:08:40;;;;;;;5.50;3.10;;;19.20;1.00;;;;;;4989463;28;20187;-73
2023/07/29 02:11:06;;;;;;;4.57;2.50;;;19.20;1.00;;;;;;4989808;28;20194;-75
2023/07/29 02:13:31;;;;;;;5.40;2.90;;;19.20;1.00;;;;;;4989378;28;20445;-75
2023/07/29 02:15:57;;;;;;;8.07;2.73;;;19.20;1.00;;;;;;4988624;28;20182;-74
2023/07/29 02:18:22;;;;;;;6.10;2.87;;;19.20;1.00;;;;;;4989261;28;20223;-74
2023/07/29 02:20:49;;;;;;;4.93;2.90;;;19.20;1.00;;;;;;4989830;28;20226;-75
2023/07/29 02:23:17;;;;;;;4.90;2.97;;;19.20;1.00;;;;;;4989555;28;20198;-73
2023/07/29 02:25:42;;;;;;;4.93;2.80;;;19.20;1.00;;;;;;4990467;28;20429;-74
2023/07/29 02:28:08;;;;;;;4.37;2.90;;;19.10;1.00;;;;;;4993291;28;20438;-74
2023/07/29 02:30:33;;;;;;;4.80;2.80;;;19.10;1.00;;;;;;4991021;28;20573;-74
2023/07/29 02:33:01;;;;;;;5.50;3.10;;;19.00;1.00;;;;;;4992548;28;20172;-76
2023/07/29 02:35:26;;;;;;;5.10;2.60;;;19.00;1.00;;;;;;4993693;28;20175;-76
2023/07/29 02:37:52;;;;;;;4.27;2.70;;;19.00;1.00;;;;;;4992533;28;20442;-74
2023/07/29 02:40:17;;;;;;;7.73;3.10;;;19.10;1.00;;;;;;4993597;28;20676;-76
2023/07/29 02:42:43;;;;;;;6.30;3.00;;;19.10;1.00;;;;;;4993088;28;20617;-73
2023/07/29 02:45:10;;;;;;;5.00;2.90;;;19.10;1.00;;;;;;4993068;28;20182;-73
2023/07/29 02:47:37;;;;;;;3.80;2.73;;;19.10;1.00;;;;;;4992372;28;20215;-72
2023/07/29 02:50:03;;;;;;;7.93;3.27;;;19.10;1.00;;;;;;4993521;28;20414;-73
2023/07/29 02:52:28;;;;;;;3.40;2.83;;;19.10;1.00;;;;;;4992283;28;20442;-74
2023/07/29 02:54:54;;;;;;;7.13;3.00;;;19.10;1.00;;;;;;4992886;28;20176;-73
2023/07/29 02:57:20;;;;;;;6.50;2.87;;;19.10;1.00;;;;;;4992352;28;20199;-73
2023/07/29 02:59:45;;;;;;;9.83;3.10;;;19.10;1.00;;;;;;4992915;28;20246;-74
2023/07/29 03:02:11;;;;;;;5.50;2.90;;;19.00;1.00;;;;;;4992027;28;20462;-73
2023/07/29 03:04:37;;;;;;;4.33;2.60;;;19.00;1.00;;;;;;4992712;28;20191;-74
2023/07/29 03:07:03;;;;;;;8.03;2.70;;;19.00;1.00;;;;;;4992233;28;20593;-74
2023/07/29 03:09:29;;;;;;;4.43;3.17;;;19.00;1.00;;;;;;4992656;28;20206;-75
2023/07/29 03:11:54;;;;;;;3.70;2.70;;;19.00;1.00;;;;;;4992731;28;20437;-72
2023/07/29 03:14:21;;;;;;;3.40;2.67;;;19.00;1.00;;;;;;4992671;28;20199;-76
2023/07/29 03:16:46;;;;;;;4.30;2.90;;;19.10;1.00;;;;;;4988644;28;20538;-73
2023/07/29 03:19:12;;;;;;;6.20;2.70;;;19.10;1.00;;;;;;4992813;28;20198;-74
2023/07/29 03:21:38;;;;;;;3.50;2.40;;;19.10;1.00;;;;;;4992447;28;20663;-74
2023/07/29 03:24:03;;;;;;;3.00;2.30;;;19.10;1.00;;;;;;4992562;28;20634;-75
2023/07/29 03:26:29;;;;;;;3.63;2.50;;;19.10;1.00;;;;;;4992251;28;21060;-74
2023/07/29 03:28:55;;;;;;;5.37;2.83;;;19.10;1.00;;;;;;4992318;28;20183;-73
2023/07/29 03:31:20;;;;;;;3.97;2.27;;;19.20;1.00;;;;;;4991872;28;20187;-73
2023/07/29 03:33:46;;;;;;;4.73;2.60;;;19.20;1.00;;;;;;4989734;28;20193;-73
2023/07/29 03:36:11;;;;;;;5.13;2.60;;;19.20;1.00;;;;;;4991860;28;20179;-72
2023/07/29 03:38:39;;;;;;;5.13;2.40;;;19.20;1.00;;;;;;4991729;28;20195;-74
2023/07/29 03:41:08;;;;;;;9.00;2.67;;;19.20;1.00;;;;;;4998491;28;20270;-73
2023/07/29 03:43:34;;;;;;;3.90;2.27;;;19.20;1.00;;;;;;4992339;28;20465;-74
2023/07/29 03:46:00;;;;;;;3.57;2.30;;;19.30;1.00;;;;;;4990499;28;20439;-75
2023/07/29 03:48:25;;;;;;;3.50;2.30;;;19.30;1.00;;;;;;4990637;28;20261;-73
2023/07/29 03:50:51;;;;;;;6.00;2.80;;;19.30;1.00;;;;;;4991037;28;20214;-74
2023/07/29 03:53:16;;;;;;;5.83;2.40;;;19.30;1.00;;;;;;4992338;28;20182;-73
2023/07/29 03:55:42;;;;;;;4.80;2.70;;;19.30;1.00;;;;;;4992080;28;20191;-73
2023/07/29 03:58:08;;;;;;;5.67;2.70;;;19.30;1.00;;;;;;4996280;28;20207;-73
2023/07/29 04:00:33;;;;;;;6.90;2.50;;;19.30;1.00;;;;;;4992306;28;20192;-74
2023/07/29 04:02:59;;;;;;;3.70;2.60;;;19.30;1.00;;;;;;4991156;28;20237;-73
2023/07/29 04:05:24;;;;;;;7.63;3.10;;;19.30;1.00;;;;;;4992064;28;20194;-73
2023/07/29 04:07:50;;;;;;;4.93;3.00;;;19.30;1.00;;;;;;4984076;28;20218;-74
2023/07/29 04:10:15;;;;;;;5.03;2.60;;;19.40;1.00;;;;;;4991655;28;20179;-75
2023/07/29 04:12:41;;;;;;;4.27;2.60;;;19.40;1.00;;;;;;4991611;28;20179;-72
2023/07/29 04:15:07;;;;;;;6.83;3.13;;;19.40;1.00;;;;;;4992017;28;20427;-73
2023/07/29 04:17:33;;;;;;;4.03;2.73;;;19.40;1.00;;;;;;4990726;28;20213;-75
2023/07/29 04:19:58;;;;;;;3.80;2.70;;;19.40;1.00;;;;;;4991451;28;20525;-76
2023/07/29 04:22:24;;;;;;;11.30;2.60;;;19.40;1.00;;;;;;4991776;28;20669;-74
2023/07/29 04:24:49;;;;;;;5.33;3.37;;;19.40;1.00;;;;;;4991639;28;20187;-72
2023/07/29 04:27:14;;;;;;;10.57;3.30;;;19.40;1.00;;;;;;4991117;28;20199;-73
2023/07/29 04:29:40;;;;;;;4.87;3.10;;;19.50;1.00;;;;;;4991530;28;20183;-73
2023/07/29 04:32:06;;;;;;;7.27;3.00;;;19.40;1.00;;;;;;4990693;28;20191;-74
2023/07/29 04:34:31;;;;;;;3.60;2.67;;;19.50;1.00;;;;;;4990935;28;20581;-75
2023/07/29 04:36:57;;;;;;;5.13;2.67;;;19.40;1.00;;;;;;4991202;28;20298;-74
2023/07/29 04:39:23;;;;;;;6.30;2.37;;;19.40;1.00;;;;;;4989988;28;20539;-74
2023/07/29 04:41:48;;;;;;;9.63;4.33;;;19.40;1.00;;;;;;4989609;28;20339;-73
2023/07/29 04:44:14;;;;;;;9.83;3.17;;;19.30;1.00;;;;;;4990747;28;20179;-75
2023/07/29 04:46:39;;;;;;;5.43;2.80;;;18.90;1.00;;;;;;4989095;28;20642;-75
2023/07/29 04:49:05;;;;;;;6.67;3.50;;;18.90;1.00;;;;;;4988720;28;20210;-75
2023/07/29 04:51:31;;;;;;;7.10;3.30;;;18.90;1.00;;;;;;4988939;28;20195;-73
2023/07/29 04:53:57;;;;;;;17.90;3.90;;;18.70;1.00;;;;;;4988550;28;20266;-73
2023/07/29 04:56:23;;;;;;;10.80;3.63;;;18.60;1.00;;;;;;4990237;28;20434;-73
2023/07/29 04:58:49;;;;;;;6.17;3.40;;;18.60;1.00;;;;;;4988862;28;20441;-73
2023/07/29 05:01:14;;;;;;;6.90;4.10;;;18.60;3.10;;;;;;4990587;28;20175;-73
2023/07/29 05:03:40;;;;;;;4.93;3.83;;;18.60;6.30;;;;;;4989802;28;20206;-73
2023/07/29 05:06:05;;;;;;;6.20;3.60;;;18.60;7.10;;;;;;4989777;28;20206;-74
2023/07/29 05:08:31;;;;;;;5.70;4.03;;;18.60;8.90;;;;;;4990424;28;20179;-73
2023/07/29 05:10:57;;;;;;;8.43;5.03;;;18.70;12.20;;;;;;4990037;28;20700;-76
2023/07/29 05:13:22;;;;;;;8.13;5.37;;;18.70;11.30;;;;;;4990077;28;20179;-74
2023/07/29 05:15:49;;;;;;;8.00;4.67;;;18.70;14.40;;;;;;4987396;28;20194;-72
2023/07/29 05:18:15;;;;;;;6.30;4.33;;;18.70;12.90;;;;;;4988716;28;20617;-73
2023/07/29 05:20:41;;;;;;;9.57;4.63;;;18.80;12.80;;;;;;4993034;28;20426;-76
2023/07/29 05:23:06;;;;;;;5.80;4.67;;;18.70;13.20;;;;;;4994487;28;20466;-73
2023/07/29 05:25:34;;;;;;;6.13;4.40;;;20.00;16.90;;;;;;4990086;28;20190;-73
2023/07/29 05:28:00;;;;;;;7.67;3.67;;;18.90;16.50;;;;;;4989013;28;20547;-74
2023/07/29 05:30:26;;;;;;;7.30;3.37;;;18.90;15.40;;;;;;4990209;28;20430;-74
2023/07/29 05:32:52;;;;;;;6.40;3.67;;;20.10;13.50;;;;;;4988558;28;20186;-74
2023/07/29 05:35:18;;;;;;;4.77;3.37;;;18.90;13.90;;;;;;4988801;28;20418;-73
2023/07/29 05:37:43;;;;;;;6.73;4.07;;;18.90;11.60;;;;;;4987284;28;20241;-73
2023/07/29 05:40:09;;;;;;;7.63;4.20;;;19.00;15.70;;;;;;4989674;28;20195;-73
2023/07/29 05:42:35;;;;;;;17.63;4.20;;;19.00;14.10;;;;;;4988235;28;20195;-74
2023/07/29 05:45:01;;;;;;;27.67;5.27;;;19.00;15.10;;;;;;4989624;28;20241;-73
2023/07/29 05:47:26;;;;;;;10.00;4.47;;;18.90;14.00;;;;;;4992382;28;20987;-73
2023/07/29 05:49:52;;;;;;;7.40;3.97;;;18.90;14.80;;;;;;4989427;28;20557;-74
2023/07/29 05:52:18;;;;;;;8.00;4.63;;;18.90;16.00;;;;;;4989582;28;20179;-74
2023/07/29 05:54:44;;;;;;;4.77;3.17;;;18.90;17.00;;;;;;4989611;28;20678;-73
2023/07/29 05:57:11;;;;;;;7.17;3.90;;;18.80;14.40;;;;;;4988378;28;20207;-73
2023/07/29 05:59:36;;;;;;;6.43;4.00;;;18.90;17.50;;;;;;4988291;28;20744;-73
2023/07/29 06:02:02;;;;;;;9.37;4.00;;;18.90;18.40;;;;;;4987763;28;20474;-73
2023/07/29 06:04:27;;;;;;;5.93;3.83;;;19.00;19.70;;;;;;4991949;28;20221;-73
2023/07/29 06:06:53;;;;;;;5.90;3.40;;;18.90;21.10;;;;;;4987900;28;20271;-75
2023/07/29 06:09:18;;;;;;;5.63;4.00;;;19.00;21.30;;;;;;4989265;28;20190;-73
2023/07/29 06:11:44;;;;;;;5.43;3.93;;;19.10;21.00;;;;;;4985102;28;20172;-74
2023/07/29 06:14:09;;;;;;;5.70;4.00;;;19.10;21.90;;;;;;4988326;28;20174;-73
2023/07/29 06:16:35;;;;;;;6.90;4.23;;;19.30;18.20;;;;;;4988621;28;20670;-73
2023/07/29 06:19:00;;;;;;;8.03;4.27;;;19.40;20.50;;;;;;4988484;28;20198;-74
2023/07/29 06:21:26;;;;;;;9.20;4.00;;;19.40;19.60;;;;;;4989238;28;20329;-74
2023/07/29 06:23:51;;;;;;;5.03;3.60;;;19.50;18.20;;;;;;4989105;28;20618;-75
2023/07/29 06:26:17;;;;;;;6.13;4.23;;;19.50;16.10;;;;;;4987922;28;20190;-73
2023/07/29 06:28:42;;;;;;;7.33;4.53;;;19.50;18.90;;;;;;4988547;28;20183;-74
2023/07/29 06:31:08;;;;;;;6.40;4.43;;;19.40;18.60;;;;;;4988091;28;20234;-73
2023/07/29 06:33:33;;;;;;;7.33;4.20;;;19.40;20.40;;;;;;4988105;28;20183;-74
2023/07/29 06:35:59;;;;;;;7.47;4.57;;;19.40;22.90;;;;;;4988645;28;20696;-74
2023/07/29 06:38:24;;;;;;;9.43;5.20;;;19.40;23.40;;;;;;4988927;28;20191;-74
2023/07/29 06:40:50;;;;;;;7.60;4.47;;;19.50;24.30;;;;;;4989070;28;20226;-73
2023/07/29 06:43:16;;;;;;;7.70;4.87;;;19.50;25.10;;;;;;4988186;28;20214;-73
2023/07/29 06:45:42;;;;;;;5.40;4.10;;;19.50;26.70;;;;;;4987864;28;20202;-74
2023/07/29 06:48:08;;;;;;;6.40;4.50;;;19.70;25.50;;;;;;4986769;28;20219;-75
2023/07/29 06:50:33;;;;;;;6.33;4.30;;;19.80;28.60;;;;;;4988363;28;20183;-73
2023/07/29 06:52:59;;;;;;;6.30;3.87;;;20.00;23.90;;;;;;4988176;28;20199;-75
2023/07/29 06:55:24;;;;;;;6.90;4.47;;;20.10;19.30;;;;;;4988783;28;20183;-74
2023/07/29 06:57:50;;;;;;;6.73;4.70;;;20.20;20.20;;;;;;4986580;28;20618;-73
2023/07/29 07:00:15;;;;;;;9.13;4.33;;;20.20;17.70;;;;;;4986247;28;20600;-74
2023/07/29 07:02:41;;;;;;;7.73;4.20;;;20.00;17.00;;;;;;4984092;28;20211;-72
2023/07/29 07:05:07;;;;;;;8.10;4.83;;;20.00;20.10;;;;;;4988059;28;20199;-74
2023/07/29 07:07:33;;;;;;;8.70;4.57;;;20.10;23.30;;;;;;4988149;28;20757;-73
2023/07/29 07:09:58;;;;;;;6.97;4.00;;;20.20;24.70;;;;;;4988982;28;20721;-74
2023/07/29 07:12:24;;;;;;;7.70;4.27;;;20.20;23.50;;;;;;4990791;28;20646;-77
2023/07/29 07:14:49;;;;;;;11.27;4.33;;;20.20;23.70;;;;;;4992476;28;20179;-74
2023/07/29 07:17:15;;;;;;;6.60;4.50;;;20.20;22.10;;;;;;4990872;28;20206;-75
2023/07/29 07:19:40;;;;;;;7.33;4.53;;;20.30;24.10;;;;;;4991261;28;20235;-74
2023/07/29 07:22:06;;;;;;;8.10;4.70;;;20.30;20.80;;;;;;4990496;28;20242;-72
2023/07/29 07:24:31;;;;;;;6.90;4.50;;;20.30;20.90;;;;;;4994613;28;20708;-72
2023/07/29 07:26:57;;;;;;;5.47;3.40;;;20.60;17.00;;;;;;4989650;28;20428;-74
2023/07/29 07:29:22;;;;;;;6.83;4.03;;;20.70;23.20;;;;;;4989233;28;20226;-77
2023/07/29 07:31:53;;;;;;;4.63;3.80;;;21.00;5.90;;;;;;4991880;28;20338;-76
2023/07/29 07:34:20;;;;;;;5.90;4.10;;;21.30;1.00;;;;;;4990175;28;20191;-75
2023/07/29 07:36:45;;;;;;;8.90;3.90;;;21.60;2.70;;;;;;4992018;28;20442;-75
2023/07/29 07:39:11;;;;;;;6.20;3.60;;;22.00;1.00;;;;;;5000430;28;20792;-70
2023/07/29 07:41:36;;;;;;;6.80;3.87;;;21.80;1.00;;;;;;4992114;28;20720;-71
2023/07/29 07:44:02;;;;;;;6.63;4.37;;;21.60;1.00;;;;;;4989981;28;20680;-71
2023/07/29 07:46:28;;;;;;;5.53;3.60;;;21.70;1.00;;;;;;4990906;28;20195;-71
2023/07/29 07:48:54;;;;;;;5.37;3.60;;;21.80;1.00;;;;;;4992458;28;20198;-69
2023/07/29 07:51:19;;;;;;;8.60;3.93;;;21.90;1.00;;;;;;4990382;28;20826;-76
2023/07/29 07:53:45;;;;;;;5.80;3.93;;;22.00;1.00;;;;;;4991643;28;20604;-72
2023/07/29 07:56:10;;;;;;;7.23;3.70;;;21.70;1.00;;;;;;4993649;28;20175;-71
2023/07/29 07:58:36;;;;;;;5.63;3.97;;;21.70;1.00;;;;;;4993327;28;20179;-74
2023/07/29 08:01:06;;;;;;;5.60;3.97;;;21.70;1.00;;;;;;4990099;28;20168;-73
2023/07/29 08:03:32;;;;;;;7.80;3.47;;;21.50;1.00;;;;;;4992326;28;20270;-73
2023/07/29 08:05:58;;;;;;;15.37;3.43;;;21.40;1.00;;;;;;4991987;28;20774;-72
2023/07/29 08:08:24;;;;;;;7.47;3.50;;;21.30;1.00;;;;;;4991081;28;20203;-71
2023/07/29 08:10:50;;;;;;;7.93;3.13;;;21.20;1.00;;;;;;4992505;28;20183;-71
2023/07/29 08:13:16;;;;;;;5.30;3.27;;;21.30;1.00;;;;;;4991791;28;20421;-72
2023/07/29 08:15:41;;;;;;;5.70;3.87;;;21.20;1.00;;;;;;4990850;28;20195;-72
2023/07/29 08:18:07;;;;;;;5.10;3.13;;;21.30;1.00;;;;;;4991336;28;20248;-71
2023/07/29 08:20:32;;;;;;;6.57;3.70;;;21.50;1.00;;;;;;4992065;28;20187;-72
2023/07/29 08:22:58;;;;;;;5.20;3.07;;;21.50;1.00;;;;;;4989205;28;20286;-72
2023/07/29 08:25:23;;;;;;;6.10;2.90;;;21.60;1.00;;;;;;4991447;28;20199;-73
2023/07/29 08:27:49;;;;;;;4.50;3.00;;;21.80;1.00;;;;;;4991232;28;20199;-73
2023/07/29 08:30:16;;;;;;;9.40;3.20;;;21.90;1.00;;;;;;4989393;28;20692;-73
2023/07/29 08:32:41;;;;;;;4.57;2.90;;;22.10;1.00;;;;;;4988234;28;20230;-73
2023/07/29 08:35:07;;;;;;;3.57;2.60;;;22.50;1.00;;;;;;4989433;28;20474;-72
2023/07/29 08:37:33;;;;;;;5.23;3.00;;;22.90;1.00;;;;;;4990093;28;20215;-73
2023/07/29 08:39:59;;;;;;;7.30;2.80;;;23.10;1.00;;;;;;4990625;28;20633;-73
2023/07/29 08:42:30;;;;;;;4.00;2.80;;;23.30;1.00;;;;;;4991161;28;20221;-75
2023/07/29 08:44:56;;;;;;;4.50;2.63;;;23.20;1.00;;;;;;4991485;28;20170;-72
2023/07/29 08:47:22;;;;;;;8.03;3.30;;;23.10;1.00;;;;;;4991053;28;20903;-72
2023/07/29 08:49:50;;;;;;;4.70;2.83;;;23.30;1.00;;;;;;4990044;28;20434;-71
2023/07/29 08:52:16;;;;;;;3.43;2.50;;;23.40;1.00;;;;;;4989596;28;20633;-72
2023/07/29 08:54:42;;;;;;;3.80;2.60;;;23.20;1.00;;;;;;4991376;28;20793;-74
2023/07/29 08:57:07;;;;;;;3.60;2.50;;;23.20;1.00;;;;;;4991103;28;20446;-73
2023/07/29 08:59:33;;;;;;;5.10;2.73;;;23.30;1.00;;;;;;4989618;28;20182;-77
2023/07/29 09:01:59;;;;;;;4.40;2.70;;;23.20;1.00;;;;;;4990266;28;20206;-73
2023/07/29 09:04:25;;;;;;;3.70;2.53;;;23.30;1.00;;;;;;4987880;28;20660;-74
2023/07/29 09:06:51;;;;;;;6.17;3.20;;;23.20;1.00;;;;;;4988672;28;20215;-73
2023/07/29 09:09:17;;;;;;;4.10;2.60;;;23.30;1.00;;;;;;4990869;28;20175;-73
2023/07/29 09:11:43;;;;;;;5.63;2.87;;;24.00;1.00;;;;;;4991370;28;20472;-74
2023/07/29 09:14:10;;;;;;;7.73;2.80;;;24.90;1.00;;;;;;4990910;28;20209;-73
2023/07/29 09:16:36;;;;;;;3.97;2.67;;;26.10;1.00;;;;;;4991013;28;20445;-73
2023/07/29 09:19:03;;;;;;;4.57;2.40;;;27.20;1.00;;;;;;4990847;28;20422;-73
2023/07/29 09:21:29;;;;;;;4.23;2.53;;;28.70;1.00;;;;;;4988569;28;21636;-74
2023/07/29 09:23:55;;;;;;;3.37;2.27;;;29.30;1.00;;;;;;4990394;28;20493;-74
2023/07/29 09:26:25;;;;;;;7.77;2.53;;;30.30;1.00;;;;;;4990270;28;20206;-74
2023/07/29 09:28:55;;;;;;;6.20;2.37;;;30.30;1.00;;;;;;4987139;28;20179;-74
2023/07/29 09:31:23;;;;;;;3.45;2.00;;;30.70;1.00;;;;;;4989945;28;20660;-74
2023/07/29 09:33:49;;;;;;;5.00;2.30;;;30.80;1.00;;;;;;4989506;28;20277;-77
2023/07/29 09:36:15;;;;;;;3.72;2.00;;;31.50;1.00;;;;;;4989912;28;20289;-77
2023/07/29 09:38:41;;;;;;;3.72;2.00;;;31.60;1.00;;;;;;4990064;28;20179;-77
2023/07/29 09:41:06;;;;;;;3.10;1.98;;;32.40;1.00;;;;;;4988000;28;20229;-75
2023/07/29 09:43:34;;;;;;;4.00;2.10;;;33.10;1.00;;;;;;4989441;28;20198;-74
2023/07/29 09:46:01;;;;;;;3.65;2.10;;;32.60;1.00;;;;;;4989059;28;20186;-74
2023/07/29 09:48:28;;;;;;;5.75;2.30;;;31.50;1.00;;;;;;4987603;28;20621;-73
2023/07/29 09:50:54;;;;;;;3.83;2.40;;;30.70;1.00;;;;;;4988129;28;20262;-73
2023/07/29 09:53:21;;;;;;;6.97;2.05;;;30.20;1.00;;;;;;4988188;28;20182;-75
2023/07/29 09:55:48;;;;;;;3.10;2.30;;;29.70;1.00;;;;;;4989770;28;20186;-74
2023/07/29 09:58:14;;;;;;;3.10;2.20;;;29.40;1.00;;;;;;4982529;28;20699;-73
2023/07/29 10:00:40;;;;;;;4.50;2.60;;;29.20;1.00;;;;;;4987348;28;20182;-79
2023/07/29 10:03:07;;;;;;;4.00;2.40;;;28.80;1.00;;;;;;4987346;28;20677;-78
2023/07/29 10:05:34;;;;;;;3.27;2.23;;;28.50;1.00;;;;;;4992184;28;20532;-75
2023/07/29 10:08:01;;;;;;;4.67;2.60;;;28.70;1.00;;;;;;4990266;28;20198;-76
2023/07/29 10:10:27;;;;;;;3.00;2.10;;;28.60;1.00;;;;;;4989041;28;20206;-75
2023/07/29 10:12:54;;;;;;;3.80;2.37;;;28.20;1.00;;;;;;4983849;28;20183;-73
2023/07/29 10:15:21;;;;;;;4.50;2.30;;;29.00;1.00;;;;;;4990205;28;20189;-75
2023/07/29 10:17:47;;;;;;;3.47;2.17;;;29.30;1.00;;;;;;4990373;28;20190;-75
2023/07/29 10:20:13;;;;;;;3.03;2.17;;;28.50;1.00;;;;;;4991058;28;20409;-75
2023/07/29 10:22:41;;;;;;;3.53;2.20;;;28.10;1.00;;;;;;4986810;28;20276;-75
2023/07/29 10:25:17;;;;;;;3.37;2.50;;;28.20;1.00;;;;;;4990515;28;20171;-77
2023/07/29 10:27:49;;;;;;;4.50;2.40;;;27.90;1.00;;;;;;4983192;28;20744;-74
2023/07/29 10:30:15;;;;;;;3.20;2.10;;;27.70;1.00;;;;;;4990126;28;20555;-74
2023/07/29 10:32:44;;;;;;;4.93;2.60;;;27.50;1.00;;;;;;4987252;28;20517;-75
2023/07/29 10:35:10;;;;;;;4.50;2.60;;;27.30;1.00;;;;;;4987508;28;20675;-75
2023/07/29 10:37:37;;;;;;;4.00;2.57;;;27.30;1.00;;;;;;4986672;28;20454;-76
2023/07/29 10:40:06;;;;;;;4.63;2.40;;;27.40;1.00;;;;;;4990123;28;20424;-76
2023/07/29 10:42:32;;;;;;;3.83;2.60;;;27.30;1.00;;;;;;4986415;28;20824;-74
2023/07/29 10:44:58;;;;;;;4.20;2.43;;;27.30;1.00;;;;;;4988591;28;20744;-75
2023/07/29 10:47:28;;;;;;;4.37;2.50;;;27.60;1.00;;;;;;4988660;28;20202;-75
2023/07/29 10:49:58;;;;;;;4.83;2.70;;;28.00;1.00;;;;;;4986105;28;20609;-74
2023/07/29 10:52:34;;;;;;;3.70;2.70;;;28.40;1.00;;;;;;4991759;28;20436;-75
2023/07/29 10:55:01;;;;;;;4.33;2.70;;;28.30;1.00;;;;;;4989327;28;20444;-74
2023/07/29 10:57:35;;;;;;;3.50;2.50;;;28.10;1.00;;;;;;4989110;28;20536;-73
2023/07/29 11:00:03;;;;;;;4.43;2.80;;;28.20;1.00;;;;;;4988824;28;20465;-74
2023/07/29 11:02:30;;;;;;;6.03;2.70;;;28.40;1.00;;;;;;4992758;28;20501;-74
2023/07/29 11:04:56;;;;;;;3.50;2.40;;;28.90;1.00;;;;;;4991514;28;20469;-74
2023/07/29 11:07:26;;;;;;;4.10;2.70;;;29.70;1.00;;;;;;4991742;28;20493;-74
2023/07/29 11:09:56;;;;;;;4.77;3.10;;;30.10;1.00;;;;;;4985400;28;20720;-77
2023/07/29 11:12:45;;;;;;;3.50;2.43;;;30.20;1.00;;;;;;4992849;28;20217;-76
2023/07/29 11:15:11;;;;;;;5.00;2.50;;;29.60;1.00;;;;;;4986472;28;20185;-75
2023/07/29 11:17:39;;;;;;;4.53;2.20;;;28.70;1.00;;;;;;4990119;28;20289;-74
2023/07/29 11:20:09;;;;;;;3.30;2.23;;;28.40;1.00;;;;;;4991186;28;20191;-76
2023/07/29 11:22:36;;;;;;;3.23;2.03;;;28.60;1.00;;;;;;4990259;28;20472;-75
2023/07/29 11:25:01;;;;;;;4.53;2.93;;;28.80;1.00;;;;;;4990490;28;20437;-74
2023/07/29 11:27:27;;;;;;;3.60;2.20;;;28.70;1.00;;;;;;4997383;28;20513;-76
2023/07/29 11:30:00;;;;;;;3.33;2.30;;;28.90;1.00;;;;;;4990822;28;20949;-74
2023/07/29 11:32:26;;;;;;;3.00;2.10;;;28.30;1.00;;;;;;4991951;28;20194;-80
2023/07/29 11:34:51;;;;;;;3.30;1.90;;;27.70;1.00;;;;;;4992559;28;20531;-77
2023/07/29 11:37:17;;;;;;;3.73;2.27;;;27.80;1.00;;;;;;4992056;28;20457;-74
2023/07/29 11:39:45;;;;;;;4.30;2.40;;;28.70;1.00;;;;;;4988434;28;20189;-73
2023/07/29 11:42:11;;;;;;;3.43;2.03;;;30.70;1.00;;;;;;4990933;28;20191;-73
2023/07/29 11:44:37;;;;;;;3.83;2.30;;;32.10;1.00;;;;;;4991969;28;20664;-73
2023/07/29 11:47:07;;;;;;;3.35;2.08;;;32.60;1.00;;;;;;4990040;28;20308;-74
2023/07/29 11:49:33;;;;;;;2.90;1.90;;;33.30;1.00;;;;;;4991588;28;20175;-72
2023/07/29 11:51:59;;;;;;;3.00;2.10;;;34.20;1.00;;;;;;4991584;28;20183;-73
2023/07/29 11:54:25;;;;;;;3.33;2.15;;;34.90;1.00;;;;;;4991473;28;20677;-74
2023/07/29 11:56:51;;;;;;;2.95;2.00;;;34.60;1.00;;;;;;4992057;28;20214;-74
2023/07/29 11:59:17;;;;;;;3.60;2.00;;;34.60;1.00;;;;;;4991787;28;20317;-76
2023/07/29 12:01:42;;;;;;;3.22;2.13;;;34.40;1.00;;;;;;4991073;28;20201;-75
2023/07/29 12:04:08;;;;;;;4.80;2.20;;;34.80;1.00;;;;;;4990804;28;20186;-75
2023/07/29 12:06:33;;;;;;;3.78;2.10;;;35.60;1.00;;;;;;4989353;28;20217;-75
2023/07/29 12:09:00;;;;;;;3.50;2.08;;;35.00;1.00;;;;;;4992077;28;20171;-76
2023/07/29 12:11:26;;;;;;;5.47;2.03;;;35.50;1.00;;;;;;4990945;28;20233;-75
2023/07/29 12:13:54;;;;;;;3.40;1.80;;;34.80;1.00;;;;;;4991130;28;20300;-76
2023/07/29 12:16:19;;;;;;;4.13;2.20;;;34.50;1.00;;;;;;4990745;28;20182;-75
2023/07/29 12:18:45;;;;;;;3.90;2.00;;;34.60;1.00;;;;;;4989781;28;20170;-74
2023/07/29 12:21:10;;;;;;;5.03;1.80;;;34.90;1.00;;;;;;4991480;28;20181;-74
2023/07/29 12:23:36;;;;;;;3.00;1.98;;;35.70;1.00;;;;;;4990203;28;20217;-75
2023/07/29 12:26:02;;;;;;;3.35;1.80;;;35.60;1.00;;;;;;4992075;28;20576;-75
2023/07/29 12:28:27;;;;;;;7.03;1.90;;;35.80;1.00;;;;;;4991955;28;20218;-74
2023/07/29 12:30:54;;;;;;;3.33;1.98;;;34.90;1.00;;;;;;4991767;28;20187;-74
2023/07/29 12:33:30;;;;;;;5.20;2.03;;;35.00;1.00;;;;;;4991914;28;20179;-75
2023/07/29 12:35:56;;;;;;;3.85;2.00;;;35.20;1.00;;;;;;4989799;28;20768;-75
2023/07/29 12:38:21;;;;;;;3.45;2.15;;;34.90;1.00;;;;;;4991625;28;20191;-74
2023/07/29 12:40:47;;;;;;;3.10;1.88;;;35.00;1.00;;;;;;4991862;28;20187;-75
2023/07/29 12:43:12;;;;;;;4.43;1.98;;;34.80;1.00;;;;;;4989773;28;20203;-76
2023/07/29 12:45:41;;;;;;;2.90;1.83;;;35.50;1.00;;;;;;4991506;28;20186;-79
2023/07/29 12:48:07;;;;;;;3.08;1.95;;;36.10;1.00;;;;;;4990092;28;20244;-75
2023/07/29 12:50:32;;;;;;;2.85;1.90;;;35.60;1.00;;;;;;4990650;28;20450;-74